Monte Anaga — EAHA — position and weather

sailwx.info

Track history (hours):
 
Tides and Currents Weather Stations Pressure Air Temp Water Temp Dewpoint Dewpoint Depression Visibility Wind Speed Wind Dir Waves Ship Positions

Monte Anaga

Last reported at 2017-Nov-25 02:00 UTC. Time now 2017-Nov-25 02:05 UTC.
Position N 36°10' W 005°23'.

Length 87 m; draft 3.5 m.

Type: Tanker. MMSI: 225419000.

Date/timePositionNaut miles runAvg speedWind from/ knotsBaromVisibWave heightAir tempDewpointWater temp
2017-Nov-25 02:00N 36°10' W 005°23'0 0.1
2017-Nov-25 01:27N 36°10' W 005°23'0 0.0
2017-Nov-25 01:00N 36°10' W 005°23'0 0.1
2017-Nov-25 00:30N 36°10' W 005°23'3 1.0
2017-Nov-24 21:24N 36°08' W 005°26'0 0.2
2017-Nov-24 21:00N 36°08' W 005°26'0 0.0
2017-Nov-24 16:18N 36°08' W 005°26'0 0.0
2017-Nov-24 15:56N 36°08' W 005°26'0 0.0
2017-Nov-24 15:30N 36°08' W 005°26'1 2.5
2017-Nov-24 15:00N 36°09' W 005°26'0 0.7
2017-Nov-24 14:30N 36°10' W 005°26'0 0.0
2017-Nov-24 14:00N 36°10' W 005°26'0 0.0
2017-Nov-24 13:30N 36°10' W 005°26'0 0.1
2017-Nov-24 13:00N 36°10' W 005°26'1 2.7
2017-Nov-24 12:30N 36°10' W 005°24'0 0.0
2017-Nov-24 12:00N 36°10' W 005°24'1 0.3
2017-Nov-24 06:44N 36°10' W 005°26'0 0.1
2017-Nov-24 06:00N 36°10' W 005°26'0 0.0
2017-Nov-24 05:08N 36°10' W 005°26'0 0.0
2017-Nov-24 04:21N 36°10' W 005°26'0 0.0
2017-Nov-24 00:23N 36°10' W 005°26'1 0.5
2017-Nov-23 21:45N 36°08' W 005°26'0 0.0
2017-Nov-23 19:52N 36°08' W 005°26'0 0.0
2017-Nov-23 14:18N 36°08' W 005°26'0 0.0
2017-Nov-23 06:02N 36°08' W 005°26'0 0.7
2017-Nov-23 06:00N 36°08' W 005°26'2 3.9
2017-Nov-23 05:30N 36°10' W 005°24'1 1.8
2017-Nov-23 04:59N 36°11' W 005°24'0 0.0
2017-Nov-23 04:29N 36°11' W 005°24'0 0.0
2017-Nov-23 03:59N 36°11' W 005°24'0 0.0
2017-Nov-23 03:29N 36°11' W 005°24'0 0.0
2017-Nov-23 03:00N 36°11' W 005°24'0 0.0
2017-Nov-23 02:29N 36°11' W 005°24'0 0.0
2017-Nov-23 02:00N 36°11' W 005°24'0 0.0
2017-Nov-23 01:30N 36°11' W 005°24'0 0.0
2017-Nov-23 01:00N 36°11' W 005°24'0 0.0
2017-Nov-23 00:30N 36°11' W 005°24'0 0.0
2017-Nov-23 00:00N 36°11' W 005°24'0 0.0
2017-Nov-22 23:30N 36°11' W 005°24'0 0.0
2017-Nov-22 23:00N 36°11' W 005°24'0 0.0
2017-Nov-22 22:24N 36°11' W 005°24'0 0.0
2017-Nov-22 22:00N 36°11' W 005°24'0 0.0
2017-Nov-22 21:25N 36°11' W 005°24'0 0.0
2017-Nov-22 21:00N 36°11' W 005°24'0 0.0
2017-Nov-22 20:24N 36°11' W 005°24'0 0.0
2017-Nov-22 20:00N 36°11' W 005°24'0 0.0
2017-Nov-22 19:30N 36°11' W 005°24'  
2017-Nov-19 23:01N 36°09' W 005°26'0 0.1
2017-Nov-19 22:56N 36°09' W 005°26'0 0.0
2017-Nov-19 22:23N 36°09' W 005°26'0 0.2
2017-Nov-19 19:54N 36°09' W 005°26'0 0.2
2017-Nov-19 19:23N 36°09' W 005°26'0 1.1
2017-Nov-19 18:57N 36°09' W 005°26'0 0.0
2017-Nov-19 17:32N 36°09' W 005°26'0 0.0
2017-Nov-19 17:24N 36°09' W 005°26'0 0.0
2017-Nov-19 16:59N 36°09' W 005°26'0 0.0
2017-Nov-19 08:54N 36°09' W 005°26'0 0.5
2017-Nov-19 08:29N 36°09' W 005°26'2 3.3
2017-Nov-19 08:00N 36°08' W 005°25'0 0.0
2017-Nov-19 07:27N 36°08' W 005°25'0 0.0
2017-Nov-19 07:00N 36°08' W 005°25'0 0.0
2017-Nov-19 06:26N 36°08' W 005°25'0 0.0
2017-Nov-19 05:58N 36°08' W 005°25'1 0.3
2017-Nov-19 01:37N 36°09' W 005°26'0 2.5
2017-Nov-19 01:30N 36°09' W 005°26'0 0.1
2017-Nov-19 00:57N 36°09' W 005°26'0 0.0
2017-Nov-19 00:30N 36°09' W 005°26'0 0.0
2017-Nov-18 23:48N 36°09' W 005°26'0 0.0
2017-Nov-18 23:29N 36°09' W 005°26'0 0.0
2017-Nov-18 23:00N 36°09' W 005°26'0 0.0
2017-Nov-18 22:30N 36°09' W 005°26'0 0.0
2017-Nov-18 22:00N 36°09' W 005°26'0 0.0
2017-Nov-18 21:30N 36°09' W 005°26'0 0.0
2017-Nov-18 21:00N 36°09' W 005°26'0 0.0
2017-Nov-18 20:28N 36°09' W 005°26'0 0.0
2017-Nov-18 20:00N 36°09' W 005°26'0 0.0
2017-Nov-18 14:39N 36°09' W 005°26'1 0.1
2017-Nov-18 06:31N 36°09' W 005°26'0 0.0
2017-Nov-18 06:30N 36°09' W 005°26'0 0.0
2017-Nov-18 06:00N 36°09' W 005°26'0 0.0
2017-Nov-18 05:30N 36°09' W 005°26'0 0.0
2017-Nov-18 05:00N 36°09' W 005°26'0 0.0
2017-Nov-18 04:30N 36°09' W 005°26'0 0.0
2017-Nov-18 03:54N 36°09' W 005°26'0 0.0
2017-Nov-18 03:29N 36°09' W 005°26'0 0.0
2017-Nov-18 03:00N 36°09' W 005°26'0 0.0
2017-Nov-18 02:30N 36°09' W 005°26'0 0.0
2017-Nov-18 02:00N 36°09' W 005°26'0 0.6
2017-Nov-18 01:28N 36°08' W 005°26'0 0.1
2017-Nov-17 22:56N 36°08' W 005°26'0 0.0
2017-Nov-17 22:30N 36°08' W 005°26'0 0.0
2017-Nov-17 21:38N 36°08' W 005°26'0 0.0
2017-Nov-17 21:30N 36°08' W 005°26'0 0.0
2017-Nov-17 20:17N 36°08' W 005°26'0 0.0
2017-Nov-17 19:59N 36°08' W 005°26'1 0.6
2017-Nov-17 19:08N 36°09' W 005°26'3 0.2
2017-Nov-17 06:17N 36°11' W 005°24'0 0.0
2017-Nov-17 06:00N 36°11' W 005°24'0 0.0
2017-Nov-17 05:30N 36°11' W 005°24'0 0.0
2017-Nov-17 05:00N 36°11' W 005°24'0 0.0
2017-Nov-17 04:27N 36°11' W 005°24'0 0.0
2017-Nov-17 03:30N 36°11' W 005°24'0 0.0
2017-Nov-17 03:00N 36°11' W 005°24'0 0.0
2017-Nov-17 02:09N 36°11' W 005°24'0 0.0
2017-Nov-17 02:00N 36°11' W 005°24'0 0.0
2017-Nov-17 00:53N 36°11' W 005°24'0 0.0
2017-Nov-17 00:29N 36°11' W 005°24'0 0.0
2017-Nov-16 23:57N 36°11' W 005°24'0 0.0
2017-Nov-16 23:30N 36°11' W 005°24'0 0.0
2017-Nov-16 23:00N 36°11' W 005°24'0 0.0
2017-Nov-16 22:29N 36°11' W 005°24'0 1.0
2017-Nov-16 22:00N 36°10' W 005°23'0 0.1
2017-Nov-16 21:30N 36°10' W 005°23'3 0.2
2017-Nov-16 07:07N 36°09' W 005°26'0 0.1
2017-Nov-16 07:00N 36°09' W 005°26'0 0.0
2017-Nov-16 06:29N 36°09' W 005°26'0 0.0
2017-Nov-16 05:48N 36°09' W 005°26'0 0.0
2017-Nov-16 05:30N 36°09' W 005°26'0 0.0
2017-Nov-16 04:58N 36°09' W 005°26'0 0.0
2017-Nov-16 04:30N 36°09' W 005°26'0 0.0
2017-Nov-16 03:58N 36°09' W 005°26'0 0.0
2017-Nov-16 03:30N 36°09' W 005°26'0 0.0
2017-Nov-16 03:00N 36°09' W 005°26'0 0.0
2017-Nov-16 02:28N 36°09' W 005°26'1 0.4
2017-Nov-15 23:11N 36°10' W 005°25'1 2.6
2017-Nov-15 22:43N 36°11' W 005°24'0 0.0
2017-Nov-15 22:29N 36°11' W 005°24'0 0.0
2017-Nov-15 22:00N 36°11' W 005°24'0 0.0
2017-Nov-15 21:28N 36°11' W 005°24'0 0.0
2017-Nov-15 19:54N 36°11' W 005°24'0 0.0
2017-Nov-15 19:30N 36°11' W 005°24'0 0.0
2017-Nov-15 06:58N 36°11' W 005°24'2 1.0
2017-Nov-15 04:47N 36°09' W 005°26'  
Track history (hours):
 
Tides and Currents Weather Stations Pressure Air Temp Water Temp Dewpoint Dewpoint Depression Visibility Wind Speed Wind Dir Waves Ship Positions

Monte Anaga

Last reported at 2017-Nov-25 02:00 UTC. Time now 2017-Nov-25 02:05 UTC.
Position N 36°10' W 005°23'.

Length 87 m; draft 3.5 m.

Type: Tanker. MMSI: 225419000.

Date/timePositionNaut miles runAvg speedWind from/ knotsBaromVisibWave heightAir tempDewpointWater temp
2017-Nov-25 02:00N 36°10' W 005°23'0 0.1
2017-Nov-25 01:27N 36°10' W 005°23'0 0.0
2017-Nov-25 01:00N 36°10' W 005°23'0 0.1
2017-Nov-25 00:30N 36°10' W 005°23'3 1.0
2017-Nov-24 21:24N 36°08' W 005°26'0 0.2
2017-Nov-24 21:00N 36°08' W 005°26'0 0.0
2017-Nov-24 16:18N 36°08' W 005°26'0 0.0
2017-Nov-24 15:56N 36°08' W 005°26'0 0.0
2017-Nov-24 15:30N 36°08' W 005°26'1 2.5
2017-Nov-24 15:00N 36°09' W 005°26'0 0.7
2017-Nov-24 14:30N 36°10' W 005°26'0 0.0
2017-Nov-24 14:00N 36°10' W 005°26'0 0.0
2017-Nov-24 13:30N 36°10' W 005°26'0 0.1
2017-Nov-24 13:00N 36°10' W 005°26'1 2.7
2017-Nov-24 12:30N 36°10' W 005°24'0 0.0
2017-Nov-24 12:00N 36°10' W 005°24'1 0.3
2017-Nov-24 06:44N 36°10' W 005°26'0 0.1
2017-Nov-24 06:00N 36°10' W 005°26'0 0.0
2017-Nov-24 05:08N 36°10' W 005°26'0 0.0
2017-Nov-24 04:21N 36°10' W 005°26'0 0.0
2017-Nov-24 00:23N 36°10' W 005°26'1 0.5
2017-Nov-23 21:45N 36°08' W 005°26'0 0.0
2017-Nov-23 19:52N 36°08' W 005°26'0 0.0
2017-Nov-23 14:18N 36°08' W 005°26'0 0.0
2017-Nov-23 06:02N 36°08' W 005°26'0 0.7
2017-Nov-23 06:00N 36°08' W 005°26'2 3.9
2017-Nov-23 05:30N 36°10' W 005°24'1 1.8
2017-Nov-23 04:59N 36°11' W 005°24'0 0.0
2017-Nov-23 04:29N 36°11' W 005°24'0 0.0
2017-Nov-23 03:59N 36°11' W 005°24'0 0.0
2017-Nov-23 03:29N 36°11' W 005°24'0 0.0
2017-Nov-23 03:00N 36°11' W 005°24'0 0.0
2017-Nov-23 02:29N 36°11' W 005°24'0 0.0
2017-Nov-23 02:00N 36°11' W 005°24'0 0.0
2017-Nov-23 01:30N 36°11' W 005°24'0 0.0
2017-Nov-23 01:00N 36°11' W 005°24'0 0.0
2017-Nov-23 00:30N 36°11' W 005°24'0 0.0
2017-Nov-23 00:00N 36°11' W 005°24'0 0.0
2017-Nov-22 23:30N 36°11' W 005°24'0 0.0
2017-Nov-22 23:00N 36°11' W 005°24'0 0.0
2017-Nov-22 22:24N 36°11' W 005°24'0 0.0
2017-Nov-22 22:00N 36°11' W 005°24'0 0.0
2017-Nov-22 21:25N 36°11' W 005°24'0 0.0
2017-Nov-22 21:00N 36°11' W 005°24'0 0.0
2017-Nov-22 20:24N 36°11' W 005°24'0 0.0
2017-Nov-22 20:00N 36°11' W 005°24'0 0.0
2017-Nov-22 19:30N 36°11' W 005°24'  
2017-Nov-19 23:01N 36°09' W 005°26'0 0.1
2017-Nov-19 22:56N 36°09' W 005°26'0 0.0
2017-Nov-19 22:23N 36°09' W 005°26'0 0.2
2017-Nov-19 19:54N 36°09' W 005°26'0 0.2
2017-Nov-19 19:23N 36°09' W 005°26'0 1.1
2017-Nov-19 18:57N 36°09' W 005°26'0 0.0
2017-Nov-19 17:32N 36°09' W 005°26'0 0.0
2017-Nov-19 17:24N 36°09' W 005°26'0 0.0
2017-Nov-19 16:59N 36°09' W 005°26'0 0.0
2017-Nov-19 08:54N 36°09' W 005°26'0 0.5
2017-Nov-19 08:29N 36°09' W 005°26'2 3.3
2017-Nov-19 08:00N 36°08' W 005°25'0 0.0
2017-Nov-19 07:27N 36°08' W 005°25'0 0.0
2017-Nov-19 07:00N 36°08' W 005°25'0 0.0
2017-Nov-19 06:26N 36°08' W 005°25'0 0.0
2017-Nov-19 05:58N 36°08' W 005°25'1 0.3
2017-Nov-19 01:37N 36°09' W 005°26'0 2.5
2017-Nov-19 01:30N 36°09' W 005°26'0 0.1
2017-Nov-19 00:57N 36°09' W 005°26'0 0.0
2017-Nov-19 00:30N 36°09' W 005°26'0 0.0
2017-Nov-18 23:48N 36°09' W 005°26'0 0.0
2017-Nov-18 23:29N 36°09' W 005°26'0 0.0
2017-Nov-18 23:00N 36°09' W 005°26'0 0.0
2017-Nov-18 22:30N 36°09' W 005°26'0 0.0
2017-Nov-18 22:00N 36°09' W 005°26'0 0.0
2017-Nov-18 21:30N 36°09' W 005°26'0 0.0
2017-Nov-18 21:00N 36°09' W 005°26'0 0.0
2017-Nov-18 20:28N 36°09' W 005°26'0 0.0
2017-Nov-18 20:00N 36°09' W 005°26'0 0.0
2017-Nov-18 14:39N 36°09' W 005°26'1 0.1
2017-Nov-18 06:31N 36°09' W 005°26'0 0.0
2017-Nov-18 06:30N 36°09' W 005°26'0 0.0
2017-Nov-18 06:00N 36°09' W 005°26'0 0.0
2017-Nov-18 05:30N 36°09' W 005°26'0 0.0
2017-Nov-18 05:00N 36°09' W 005°26'0 0.0
2017-Nov-18 04:30N 36°09' W 005°26'0 0.0
2017-Nov-18 03:54N 36°09' W 005°26'0 0.0
2017-Nov-18 03:29N 36°09' W 005°26'0 0.0
2017-Nov-18 03:00N 36°09' W 005°26'0 0.0
2017-Nov-18 02:30N 36°09' W 005°26'0 0.0
2017-Nov-18 02:00N 36°09' W 005°26'0 0.6
2017-Nov-18 01:28N 36°08' W 005°26'0 0.1
2017-Nov-17 22:56N 36°08' W 005°26'0 0.0
2017-Nov-17 22:30N 36°08' W 005°26'0 0.0
2017-Nov-17 21:38N 36°08' W 005°26'0 0.0
2017-Nov-17 21:30N 36°08' W 005°26'0 0.0
2017-Nov-17 20:17N 36°08' W 005°26'0 0.0
2017-Nov-17 19:59N 36°08' W 005°26'1 0.6
2017-Nov-17 19:08N 36°09' W 005°26'3 0.2
2017-Nov-17 06:17N 36°11' W 005°24'0 0.0
2017-Nov-17 06:00N 36°11' W 005°24'0 0.0
2017-Nov-17 05:30N 36°11' W 005°24'0 0.0
2017-Nov-17 05:00N 36°11' W 005°24'0 0.0
2017-Nov-17 04:27N 36°11' W 005°24'0 0.0
2017-Nov-17 03:30N 36°11' W 005°24'0 0.0
2017-Nov-17 03:00N 36°11' W 005°24'0 0.0
2017-Nov-17 02:09N 36°11' W 005°24'0 0.0
2017-Nov-17 02:00N 36°11' W 005°24'0 0.0
2017-Nov-17 00:53N 36°11' W 005°24'0 0.0
2017-Nov-17 00:29N 36°11' W 005°24'0 0.0
2017-Nov-16 23:57N 36°11' W 005°24'0 0.0
2017-Nov-16 23:30N 36°11' W 005°24'0 0.0
2017-Nov-16 23:00N 36°11' W 005°24'0 0.0
2017-Nov-16 22:29N 36°11' W 005°24'0 1.0
2017-Nov-16 22:00N 36°10' W 005°23'0 0.1
2017-Nov-16 21:30N 36°10' W 005°23'3 0.2
2017-Nov-16 07:07N 36°09' W 005°26'0 0.1
2017-Nov-16 07:00N 36°09' W 005°26'0 0.0
2017-Nov-16 06:29N 36°09' W 005°26'0 0.0
2017-Nov-16 05:48N 36°09' W 005°26'0 0.0
2017-Nov-16 05:30N 36°09' W 005°26'0 0.0
2017-Nov-16 04:58N 36°09' W 005°26'0 0.0
2017-Nov-16 04:30N 36°09' W 005°26'0 0.0
2017-Nov-16 03:58N 36°09' W 005°26'0 0.0
2017-Nov-16 03:30N 36°09' W 005°26'0 0.0
2017-Nov-16 03:00N 36°09' W 005°26'0 0.0
2017-Nov-16 02:28N 36°09' W 005°26'1 0.4
2017-Nov-15 23:11N 36°10' W 005°25'1 2.6
2017-Nov-15 22:43N 36°11' W 005°24'0 0.0
2017-Nov-15 22:29N 36°11' W 005°24'0 0.0
2017-Nov-15 22:00N 36°11' W 005°24'0 0.0
2017-Nov-15 21:28N 36°11' W 005°24'0 0.0
2017-Nov-15 19:54N 36°11' W 005°24'0 0.0
2017-Nov-15 19:30N 36°11' W 005°24'0 0.0
2017-Nov-15 06:58N 36°11' W 005°24'2 1.0
2017-Nov-15 04:47N 36°09' W 005°26'  

Dump ship's entire track history